Time;durP1;ratioP1;P1;durP2;ratioP2;P2;SDS_P1;SDS_P2;PMS_P1;PMS_P2;Temp;Humidity;BMP_temperature;BMP_pressure;BME280_temperature;BME280_humidity;BME280_pressure;Samples;Min_cycle;Max_cycle;Signal;HPM_P1;HPM_P2
2023/03/27 00:00:58;;;;;;;6.00;1.10;;;7.40;1.00;;;;;;5139201;27;20031;-65
2023/03/27 00:03:25;;;;;;;5.22;1.00;;;7.30;1.00;;;;;;5138404;27;20015;-64
2023/03/27 00:06:02;;;;;;;9.27;1.35;;;7.40;1.00;;;;;;5138884;27;20088;-63
2023/03/27 00:08:30;;;;;;;6.63;1.30;;;7.40;1.00;;;;;;5138649;27;20039;-64
2023/03/27 00:10:56;;;;;;;6.93;0.98;;;7.60;1.00;;;;;;5138733;27;20051;-64
2023/03/27 00:13:22;;;;;;;8.00;1.23;;;7.50;1.00;;;;;;5138610;27;20127;-64
2023/03/27 00:15:49;;;;;;;5.03;0.98;;;7.50;1.00;;;;;;5137734;27;20027;-65
2023/03/27 00:18:16;;;;;;;7.15;1.75;;;7.50;1.00;;;;;;5137715;27;20122;-65
2023/03/27 00:20:42;;;;;;;9.18;0.90;;;7.50;1.00;;;;;;5120695;27;20031;-65
2023/03/27 00:23:08;;;;;;;5.18;0.98;;;7.60;1.00;;;;;;5137691;27;20031;-65
2023/03/27 00:25:34;;;;;;;6.10;1.23;;;7.60;1.00;;;;;;5138512;27;20023;-65
2023/03/27 00:28:00;;;;;;;6.65;0.95;;;7.50;1.00;;;;;;5138451;27;20365;-67
2023/03/27 00:30:28;;;;;;;7.90;1.10;;;7.60;1.00;;;;;;5138253;27;20024;-64
2023/03/27 00:32:55;;;;;;;4.70;0.95;;;7.70;1.00;;;;;;5138447;27;20023;-65
2023/03/27 00:35:22;;;;;;;6.72;1.30;;;7.60;1.00;;;;;;5138204;27;20051;-64
2023/03/27 00:37:48;;;;;;;5.03;1.00;;;7.70;1.00;;;;;;5137370;27;20039;-63
2023/03/27 00:40:17;;;;;;;5.93;1.10;;;7.70;1.00;;;;;;5137787;27;20066;-63
2023/03/27 00:42:49;;;;;;;8.38;1.00;;;7.70;1.00;;;;;;5120669;27;20396;-63
2023/03/27 00:45:17;;;;;;;5.20;0.83;;;7.70;1.00;;;;;;5137381;27;20311;-64
2023/03/27 00:47:45;;;;;;;5.65;1.13;;;7.70;1.00;;;;;;5137424;27;20099;-64
2023/03/27 00:50:23;;;;;;;6.50;1.23;;;7.70;1.00;;;;;;5137388;27;20031;-65
2023/03/27 00:52:53;;;;;;;6.75;0.85;;;7.70;1.00;;;;;;5120174;27;20055;-64
2023/03/27 00:55:21;;;;;;;4.78;0.75;;;7.80;1.00;;;;;;5138074;27;20022;-64
2023/03/27 00:57:52;;;;;;;5.28;1.00;;;7.70;1.00;;;;;;5138351;27;20050;-64
2023/03/27 01:00:19;;;;;;;7.03;1.45;;;7.60;1.00;;;;;;5119232;27;20111;-64
2023/03/27 01:02:48;;;;;;;3.78;0.90;;;7.70;1.00;;;;;;5137094;27;20051;-64
2023/03/27 01:05:17;;;;;;;12.73;1.00;;;7.70;1.00;;;;;;5137893;27;20031;-63
2023/03/27 01:07:44;;;;;;;3.28;1.08;;;7.60;1.00;;;;;;5138075;27;20389;-64
2023/03/27 01:10:12;;;;;;;4.95;0.95;;;7.60;1.00;;;;;;5120150;28;20127;-64
2023/03/27 01:12:48;;;;;;;7.68;1.48;;;7.60;1.00;;;;;;5137736;28;20027;-63
2023/03/27 01:15:24;;;;;;;3.80;1.08;;;7.60;1.00;;;;;;5137103;28;20039;-64
2023/03/27 01:18:02;;;;;;;4.35;0.80;;;7.70;1.00;;;;;;5137062;28;20035;-64
2023/03/27 01:20:59;;;;;;;5.53;0.95;;;7.60;1.00;;;;;;5138306;27;20027;-64
2023/03/27 01:23:49;;;;;;;7.93;1.23;;;7.60;1.00;;;;;;5136870;28;20051;-65
2023/03/27 01:26:38;;;;;;;7.85;1.13;;;7.60;1.00;;;;;;5137009;28;20023;-63
2023/03/27 01:29:08;;;;;;;10.27;1.55;;;7.70;1.00;;;;;;5126584;28;20122;-65
2023/03/27 01:31:58;;;;;;;6.25;1.25;;;7.70;1.00;;;;;;5137609;27;20393;-64
2023/03/27 01:34:47;;;;;;;4.55;1.27;;;7.70;1.00;;;;;;5137579;27;20297;-65
2023/03/27 01:37:29;;;;;;;8.05;1.17;;;7.70;1.00;;;;;;5136861;28;20023;-64
2023/03/27 01:40:14;;;;;;;6.30;1.13;;;7.60;1.00;;;;;;5137460;27;20395;-65
2023/03/27 01:42:57;;;;;;;9.25;1.60;;;7.60;2.40;;;;;;5136755;28;20031;-64
2023/03/27 01:45:34;;;;;;;6.32;1.45;;;7.60;8.20;;;;;;5136739;28;20027;-64
2023/03/27 01:48:10;;;;;;;9.43;1.55;;;7.60;7.60;;;;;;5136851;28;20340;-64
2023/03/27 01:50:48;;;;;;;6.68;1.52;;;7.70;10.00;;;;;;5137483;27;20023;-65
2023/03/27 01:53:36;;;;;;;3.28;1.10;;;7.60;14.10;;;;;;5137351;27;20092;-64
2023/03/27 01:56:08;;;;;;;3.45;0.75;;;7.60;11.30;;;;;;5120766;28;20104;-64
2023/03/27 01:58:48;;;;;;;5.88;1.10;;;7.70;9.30;;;;;;5137276;28;20081;-64
2023/03/27 02:01:23;;;;;;;5.80;0.90;;;7.60;7.50;;;;;;5136611;28;20049;-64
2023/03/27 02:03:52;;;;;;;4.30;1.00;;;7.60;11.30;;;;;;5137475;27;20019;-64
2023/03/27 02:06:21;;;;;;;5.50;0.98;;;7.60;8.40;;;;;;5137326;27;20027;-64
2023/03/27 02:08:52;;;;;;;8.82;1.00;;;7.60;5.70;;;;;;5137442;27;20035;-64
2023/03/27 02:11:22;;;;;;;9.63;1.42;;;7.50;9.00;;;;;;5138339;27;20084;-64
2023/03/27 02:13:56;;;;;;;2.97;0.88;;;7.50;12.60;;;;;;5140915;27;20031;-64
2023/03/27 02:16:27;;;;;;;5.93;0.70;;;7.50;19.60;;;;;;5140291;27;20037;-65
2023/03/27 02:18:57;;;;;;;3.25;0.85;;;7.50;21.60;;;;;;5122915;27;20129;-65
2023/03/27 02:21:24;;;;;;;5.05;0.85;;;7.40;23.00;;;;;;5140869;27;20027;-64
2023/03/27 02:23:51;;;;;;;4.03;1.10;;;7.40;23.20;;;;;;5123200;27;20031;-64
2023/03/27 02:26:18;;;;;;;6.30;0.90;;;7.40;21.30;;;;;;5140373;27;20034;-63
2023/03/27 02:28:58;;;;;;;4.22;0.93;;;7.40;22.30;;;;;;5140936;27;20035;-64
2023/03/27 02:31:46;;;;;;;3.08;1.13;;;7.40;27.40;;;;;;5139947;27;20058;-64
2023/03/27 02:34:42;;;;;;;5.15;0.73;;;7.40;28.00;;;;;;5139821;27;20055;-65
2023/03/27 02:37:20;;;;;;;3.92;0.73;;;7.30;34.70;;;;;;5140136;27;20034;-68
2023/03/27 02:40:45;;;;;;;6.63;0.70;;;7.40;35.90;;;;;;5126389;27;20031;-65
2023/03/27 02:43:53;;;;;;;3.72;0.60;;;7.40;33.80;;;;;;5140450;27;20054;-64
2023/03/27 02:46:50;;;;;;;2.78;0.70;;;7.30;37.00;;;;;;5139930;27;20015;-64
2023/03/27 02:49:25;;;;;;;6.13;1.17;;;7.40;37.50;;;;;;5139776;27;20059;-64
2023/03/27 02:51:56;;;;;;;6.97;1.55;;;7.40;34.90;;;;;;5139651;27;20172;-64
2023/03/27 02:54:28;;;;;;;4.18;1.30;;;7.40;34.10;;;;;;5139561;27;20106;-64
2023/03/27 02:57:00;;;;;;;8.48;1.08;;;7.40;33.70;;;;;;5139550;27;20035;-65
2023/03/27 02:59:44;;;;;;;6.55;1.30;;;7.30;31.20;;;;;;5109261;27;20059;-64
2023/03/27 03:02:18;;;;;;;5.50;0.88;;;7.10;32.70;;;;;;5140430;27;20091;-64
2023/03/27 03:05:04;;;;;;;4.55;1.10;;;7.00;40.10;;;;;;5123413;27;20027;-63
2023/03/27 03:07:37;;;;;;;;;;;7.00;40.30;;;;;;5123449;27;20031;-64
2023/03/27 03:10:06;;;;;;;1.95;0.68;;;6.90;36.90;;;;;;5139153;27;19915;-64
2023/03/27 03:12:32;;;;;;;3.72;0.80;;;6.70;43.40;;;;;;5138994;27;20027;-64
2023/03/27 03:14:58;;;;;;;2.92;0.90;;;6.80;44.10;;;;;;5122018;27;20027;-63
2023/03/27 03:17:24;;;;;;;3.72;0.70;;;6.70;48.80;;;;;;5139729;27;20251;-63
2023/03/27 03:19:51;;;;;;;2.40;0.73;;;6.70;46.00;;;;;;5139056;27;20027;-64
2023/03/27 03:22:16;;;;;;;2.72;0.90;;;6.70;49.60;;;;;;5138680;27;20039;-63
2023/03/27 03:24:42;;;;;;;4.38;0.98;;;6.70;51.10;;;;;;5138710;27;20430;-63
2023/03/27 03:27:13;;;;;;;5.13;1.05;;;6.70;50.20;;;;;;5122066;27;20038;-64
2023/03/27 03:30:03;;;;;;;3.25;1.00;;;6.80;50.50;;;;;;5139353;27;20070;-64
2023/03/27 03:32:34;;;;;;;2.05;0.68;;;6.90;51.30;;;;;;5139020;27;20299;-63
2023/03/27 03:35:00;;;;;;;3.78;0.90;;;6.90;47.70;;;;;;5138617;27;20035;-64
2023/03/27 03:37:29;;;;;;;3.50;0.80;;;6.90;47.50;;;;;;5138607;27;20027;-64
2023/03/27 03:39:56;;;;;;;4.35;1.23;;;6.80;49.20;;;;;;5138443;27;20126;-64
2023/03/27 03:42:22;;;;;;;4.38;0.90;;;6.70;48.60;;;;;;5138496;27;20055;-64
2023/03/27 03:44:50;;;;;;;3.33;0.95;;;6.70;51.00;;;;;;5138483;27;20050;-64
2023/03/27 03:47:18;;;;;;;4.68;0.90;;;6.70;54.10;;;;;;5138498;27;20034;-64
2023/03/27 03:49:45;;;;;;;4.57;0.75;;;6.60;55.90;;;;;;5138471;27;20402;-64
2023/03/27 03:52:11;;;;;;;2.22;0.80;;;6.60;56.10;;;;;;5138373;27;20035;-64
2023/03/27 03:54:39;;;;;;;4.32;0.90;;;6.50;60.70;;;;;;5138288;27;20035;-64
2023/03/27 03:57:05;;;;;;;2.70;0.90;;;6.40;63.20;;;;;;5121210;27;20035;-64
2023/03/27 03:59:32;;;;;;;3.83;0.82;;;6.20;68.00;;;;;;5138910;27;20034;-63
2023/03/27 04:02:27;;;;;;;2.55;0.90;;;6.10;73.10;;;;;;5139335;27;20042;-65
2023/03/27 04:04:58;;;;;;;3.47;1.08;;;6.10;74.90;;;;;;5122441;27;20031;-64
2023/03/27 04:07:30;;;;;;;3.75;1.05;;;6.10;73.90;;;;;;5120908;27;20023;-64
2023/03/27 04:10:14;;;;;;;2.50;0.90;;;6.10;75.50;;;;;;5138317;27;20031;-64
2023/03/27 04:12:45;;;;;;;6.03;1.30;;;6.10;74.80;;;;;;5138700;27;20023;-63
2023/03/27 04:15:16;;;;;;;3.90;1.00;;;6.10;75.10;;;;;;5137903;27;20042;-64
2023/03/27 04:18:01;;;;;;;2.13;1.15;;;6.10;75.90;;;;;;5138557;27;20131;-65
2023/03/27 04:20:27;;;;;;;3.38;0.70;;;6.00;79.90;;;;;;5137697;27;20027;-63
2023/03/27 04:22:55;;;;;;;3.42;0.88;;;6.00;79.90;;;;;;5137558;27;20100;-64
2023/03/27 04:25:23;;;;;;;4.95;1.08;;;6.00;80.40;;;;;;5120676;27;20105;-64
2023/03/27 04:27:50;;;;;;;4.90;1.17;;;6.00;79.40;;;;;;5137876;27;20062;-64
2023/03/27 04:30:30;;;;;;;4.38;1.10;;;6.00;78.50;;;;;;5137663;27;20042;-64
2023/03/27 04:33:08;;;;;;;4.40;0.90;;;6.20;76.20;;;;;;5137867;27;20071;-64
2023/03/27 04:35:53;;;;;;;4.80;0.88;;;6.30;71.20;;;;;;5123334;27;20068;-64
2023/03/27 04:38:25;;;;;;;4.13;0.85;;;6.30;66.80;;;;;;5137319;27;20031;-65
2023/03/27 04:40:53;;;;;;;2.83;0.80;;;6.40;70.10;;;;;;5138068;27;20444;-65
2023/03/27 04:43:20;;;;;;;4.03;1.17;;;6.40;64.50;;;;;;5138381;27;20299;-64
2023/03/27 04:45:47;;;;;;;2.47;0.80;;;6.40;65.40;;;;;;5138078;27;20023;-65
2023/03/27 04:48:14;;;;;;;4.15;1.10;;;6.40;65.50;;;;;;5137200;27;20080;-64
2023/03/27 04:50:48;;;;;;;7.72;1.20;;;6.30;64.40;;;;;;5137225;27;20411;-65
2023/03/27 04:53:19;;;;;;;5.45;1.25;;;6.30;69.80;;;;;;5137377;27;20031;-64
2023/03/27 04:55:49;;;;;;;4.60;0.95;;;6.30;66.10;;;;;;5137259;27;20030;-66
2023/03/27 04:58:17;;;;;;;6.60;1.23;;;6.20;68.00;;;;;;5137064;27;20076;-65
2023/03/27 05:00:49;;;;;;;5.95;1.40;;;6.30;65.90;;;;;;5137016;27;20410;-61
2023/03/27 05:03:33;;;;;;;3.75;0.98;;;6.30;70.40;;;;;;5138010;27;20111;-62
2023/03/27 05:06:08;;;;;;;3.78;1.20;;;6.30;76.50;;;;;;5121485;28;20050;-63
2023/03/27 05:08:36;;;;;;;1.63;1.05;;;6.00;88.90;;;;;;5120101;28;20035;-63
2023/03/27 05:11:02;;;;;;;4.22;1.08;;;5.80;92.50;;;;;;5119688;28;20397;-64
2023/03/27 05:13:36;;;;;;;2.13;1.00;;;5.60;97.90;;;;;;5137036;28;20038;-64
2023/03/27 05:16:03;;;;;;;3.08;1.30;;;5.50;99.90;;;;;;5136864;28;20415;-64
2023/03/27 05:18:37;;;;;;;4.50;1.20;;;5.50;99.90;;;;;;5136630;28;20043;-65
2023/03/27 05:21:04;;;;;;;1.65;1.05;;;5.40;99.90;;;;;;5120071;28;20031;-64
2023/03/27 05:23:30;;;;;;;4.75;1.65;;;5.40;99.90;;;;;;5137811;27;20096;-64
2023/03/27 05:25:56;;;;;;;3.83;1.30;;;5.30;99.90;;;;;;5119931;28;20055;-63
2023/03/27 05:28:24;;;;;;;3.63;1.60;;;5.20;99.90;;;;;;5137554;27;20102;-64
2023/03/27 05:30:51;;;;;;;5.70;1.90;;;5.20;99.90;;;;;;5136570;28;20051;-64
2023/03/27 05:33:21;;;;;;;5.07;1.40;;;5.10;99.90;;;;;;5136452;28;20031;-65
2023/03/27 05:35:51;;;;;;;3.33;1.30;;;5.10;99.90;;;;;;5137517;28;20430;-64
2023/03/27 05:38:18;;;;;;;1.70;0.80;;;5.10;99.90;;;;;;5136375;28;20152;-64
2023/03/27 05:40:53;;;;;;;1.45;0.80;;;5.10;99.90;;;;;;5137280;27;20100;-65
2023/03/27 05:43:20;;;;;;;2.85;0.77;;;5.00;99.90;;;;;;5136468;28;20031;-64
2023/03/27 05:45:46;;;;;;;2.22;0.70;;;5.00;99.90;;;;;;5120627;27;20031;-65
2023/03/27 05:48:12;;;;;;;1.55;0.75;;;4.90;99.90;;;;;;5141383;27;20023;-66
2023/03/27 05:50:41;;;;;;;2.40;0.90;;;4.80;99.90;;;;;;5107578;27;20037;-66
2023/03/27 05:53:16;;;;;;;3.95;0.85;;;4.80;99.90;;;;;;5140439;27;20045;-65
2023/03/27 05:55:51;;;;;;;2.28;1.05;;;4.70;99.90;;;;;;5141469;27;20054;-65
2023/03/27 05:58:17;;;;;;;5.22;0.93;;;4.60;99.90;;;;;;5141267;27;20108;-65
2023/03/27 06:00:43;;;;;;;2.08;0.73;;;4.70;99.90;;;;;;5123290;27;20034;-65
2023/03/27 06:03:15;;;;;;;;;;;4.60;99.90;;;;;;5141143;27;20384;-65
2023/03/27 06:05:59;;;;;;;2.50;0.70;;;4.60;99.90;;;;;;5141176;27;19912;-65
2023/03/27 06:08:28;;;;;;;1.13;0.77;;;4.60;99.90;;;;;;5141256;27;20031;-64
2023/03/27 06:10:57;;;;;;;3.15;1.02;;;4.60;99.90;;;;;;5140343;27;20031;-65
2023/03/27 06:13:29;;;;;;;3.58;1.13;;;4.60;99.90;;;;;;5140163;27;20455;-64
2023/03/27 06:16:02;;;;;;;3.08;1.13;;;4.60;99.90;;;;;;5140864;27;20428;-64
2023/03/27 06:18:48;;;;;;;4.43;1.13;;;4.50;99.90;;;;;;5122421;27;20416;-64
2023/03/27 06:21:16;;;;;;;2.88;1.20;;;4.60;99.90;;;;;;5140105;27;20316;-66
2023/03/27 06:23:42;;;;;;;3.03;1.40;;;4.70;99.90;;;;;;5140388;27;20041;-65
2023/03/27 06:26:14;;;;;;;4.88;1.38;;;4.80;99.90;;;;;;5139946;27;20031;-65
2023/03/27 06:28:41;;;;;;;2.75;1.60;;;4.90;99.90;;;;;;5123331;27;20027;-64
2023/03/27 06:31:07;;;;;;;4.97;2.10;;;5.10;99.90;;;;;;5122912;27;20035;-65
2023/03/27 06:33:57;;;;;;;3.75;1.42;;;5.90;99.90;;;;;;5132248;27;20031;-65
2023/03/27 06:36:41;;;;;;;6.32;1.25;;;6.10;99.90;;;;;;5141010;27;20107;-65
2023/03/27 06:39:09;;;;;;;4.32;1.20;;;6.00;97.50;;;;;;5123021;27;20118;-65
2023/03/27 06:41:36;;;;;;;6.13;1.50;;;5.90;96.70;;;;;;5139614;27;20423;-65
2023/03/27 06:44:22;;;;;;;3.28;1.27;;;5.80;95.30;;;;;;5139655;27;20027;-63
2023/03/27 06:47:00;;;;;;;6.03;0.93;;;5.90;91.50;;;;;;5139527;27;20046;-65
2023/03/27 06:49:35;;;;;;;8.80;1.25;;;6.30;96.40;;;;;;5123963;27;20027;-64
2023/03/27 06:52:09;;;;;;;5.47;1.00;;;6.40;90.10;;;;;;5140151;27;20431;-65
2023/03/27 06:54:35;;;;;;;4.75;0.82;;;6.60;73.20;;;;;;5140094;27;20046;-66
2023/03/27 06:57:01;;;;;;;2.30;0.90;;;6.60;67.90;;;;;;5138903;27;20058;-65
2023/03/27 06:59:35;;;;;;;3.58;0.85;;;6.60;46.30;;;;;;5139339;27;20043;-65
2023/03/27 07:02:02;;;;;;;6.22;0.88;;;6.60;36.00;;;;;;5139183;27;20023;-65
2023/03/27 07:05:00;;;;;;;4.32;0.90;;;6.60;10.90;;;;;;5094784;27;20035;-65
2023/03/27 07:07:33;;;;;;;4.65;1.17;;;6.60;18.40;;;;;;5139955;27;20042;-63
2023/03/27 07:09:58;;;;;;;5.32;1.10;;;6.60;14.10;;;;;;5122257;27;20050;-65
2023/03/27 07:12:26;;;;;;;5.07;1.15;;;6.50;19.10;;;;;;5139248;27;20100;-64
2023/03/27 07:14:52;;;;;;;5.60;1.70;;;6.50;21.30;;;;;;5139847;27;20027;-65
2023/03/27 07:17:18;;;;;;;8.15;2.33;;;6.50;26.30;;;;;;5140001;27;20035;-65
2023/03/27 07:19:48;;;;;;;6.85;2.35;;;6.40;31.70;;;;;;5139029;27;20132;-65
2023/03/27 07:22:16;;;;;;;5.70;1.33;;;6.50;37.20;;;;;;5122075;27;20406;-65
2023/03/27 07:24:42;;;;;;;3.75;1.25;;;6.40;42.10;;;;;;5121706;27;20027;-65
2023/03/27 07:27:09;;;;;;;4.53;1.27;;;6.30;47.80;;;;;;5138847;27;20114;-65
2023/03/27 07:29:36;;;;;;;6.15;1.60;;;6.30;54.60;;;;;;5138765;27;20513;-61
2023/03/27 07:32:04;;;;;;;3.65;1.40;;;6.30;58.20;;;;;;5121776;27;20038;-64
2023/03/27 07:34:43;;;;;;;5.22;1.85;;;6.30;61.10;;;;;;5138688;27;20179;-64
2023/03/27 07:37:22;;;;;;;6.07;1.88;;;6.30;61.60;;;;;;5139158;27;20054;-64
2023/03/27 07:40:12;;;;;;;4.22;2.00;;;6.40;59.00;;;;;;5139198;27;20312;-65
2023/03/27 07:42:46;;;;;;;3.63;1.27;;;6.50;59.80;;;;;;5139248;27;20032;-65
2023/03/27 07:45:19;;;;;;;7.03;1.92;;;6.70;50.10;;;;;;5122131;27;20019;-64
2023/03/27 07:47:47;;;;;;;10.63;1.98;;;6.60;55.10;;;;;;5138437;27;20035;-64
2023/03/27 07:50:16;;;;;;;5.80;2.40;;;6.50;55.80;;;;;;5139335;27;20067;-63
2023/03/27 07:52:43;;;;;;;7.00;1.60;;;6.60;57.60;;;;;;5121256;27;20118;-63
2023/03/27 07:55:16;;;;;;;6.10;1.70;;;6.70;59.40;;;;;;5138294;27;20022;-63
2023/03/27 07:57:49;;;;;;;7.75;2.08;;;6.80;46.40;;;;;;5138395;27;20091;-64
2023/03/27 08:00:17;;;;;;;5.90;1.90;;;7.20;43.60;;;;;;5138146;27;20035;-65
2023/03/27 08:02:50;;;;;;;4.97;1.20;;;7.60;31.30;;;;;;5138125;27;20023;-64
2023/03/27 08:05:17;;;;;;;4.00;1.27;;;8.00;1.00;;;;;;5138057;27;20092;-63
2023/03/27 08:07:50;;;;;;;6.53;1.02;;;8.30;1.00;;;;;;5138174;27;20027;-60
2023/03/27 08:10:35;;;;;;;7.15;1.20;;;8.60;1.00;;;;;;5123713;27;20055;-63
2023/03/27 08:13:02;;;;;;;3.85;0.95;;;8.80;1.00;;;;;;5120899;27;20041;-62
2023/03/27 08:15:28;;;;;;;4.50;1.10;;;8.70;1.00;;;;;;5137880;27;20357;-62
2023/03/27 08:17:57;;;;;;;4.95;1.20;;;8.60;1.00;;;;;;5137847;27;20032;-63
2023/03/27 08:20:29;;;;;;;8.38;1.30;;;8.70;1.00;;;;;;5138093;27;20035;-62
2023/03/27 08:22:55;;;;;;;7.00;1.67;;;8.80;1.00;;;;;;5120887;27;20104;-64
2023/03/27 08:25:41;;;;;;;4.63;1.33;;;8.90;1.00;;;;;;5137623;27;20054;-64
2023/03/27 08:28:07;;;;;;;9.70;1.65;;;8.90;1.00;;;;;;5137537;27;20027;-64
2023/03/27 08:30:34;;;;;;;4.78;1.00;;;8.90;1.00;;;;;;5137722;27;20031;-60
2023/03/27 08:33:02;;;;;;;8.80;1.42;;;8.90;1.00;;;;;;5104240;27;20038;-61
2023/03/27 08:35:28;;;;;;;5.90;1.35;;;9.00;1.00;;;;;;5137848;27;20346;-64
2023/03/27 08:37:55;;;;;;;4.07;0.93;;;8.80;1.00;;;;;;5137518;27;20088;-63
2023/03/27 08:40:46;;;;;;;7.20;1.50;;;8.70;1.00;;;;;;5121999;27;20101;-64
2023/03/27 08:43:40;;;;;;;7.25;1.17;;;8.70;1.00;;;;;;5129823;27;20408;-63
2023/03/27 08:46:12;;;;;;;8.65;1.70;;;8.80;1.00;;;;;;5120423;27;20023;-63
2023/03/27 08:48:43;;;;;;;9.70;1.27;;;8.80;1.00;;;;;;5137314;27;20031;-64
2023/03/27 08:51:17;;;;;;;4.78;1.35;;;8.70;1.00;;;;;;5137331;27;20042;-64
2023/03/27 08:53:55;;;;;;;7.68;1.98;;;8.70;1.00;;;;;;5137612;27;20172;-62
2023/03/27 08:56:25;;;;;;;4.95;1.30;;;8.90;1.00;;;;;;5137309;27;20027;-63
2023/03/27 08:58:53;;;;;;;5.32;1.55;;;9.00;1.00;;;;;;5120172;27;20046;-63
2023/03/27 09:01:37;;;;;;;9.25;1.92;;;9.20;1.00;;;;;;5137248;27;20304;-63
2023/03/27 09:04:15;;;;;;;5.05;1.25;;;9.30;1.00;;;;;;5137985;27;20019;-63
2023/03/27 09:06:52;;;;;;;8.43;1.38;;;9.30;1.00;;;;;;5120369;28;20051;-63
2023/03/27 09:09:30;;;;;;;5.63;1.15;;;9.30;1.00;;;;;;5137115;27;20306;-63
2023/03/27 09:11:59;;;;;;;6.72;1.35;;;9.30;1.00;;;;;;5137057;27;20333;-63
2023/03/27 09:14:36;;;;;;;8.82;1.75;;;9.30;1.00;;;;;;5137003;27;20338;-64
2023/03/27 09:17:23;;;;;;;6.60;1.35;;;9.40;1.00;;;;;;5119885;28;20392;-62
2023/03/27 09:20:19;;;;;;;9.23;1.50;;;9.50;1.00;;;;;;5136791;27;20077;-63
2023/03/27 09:22:52;;;;;;;8.10;1.60;;;9.70;1.00;;;;;;5141269;27;20031;-64
2023/03/27 09:26:25;;;;;;;7.38;1.38;;;10.00;1.00;;;;;;5141826;27;20359;-65
2023/03/27 09:29:11;;;;;;;5.20;1.02;;;10.50;1.00;;;;;;5142279;27;20035;-60
2023/03/27 09:31:46;;;;;;;8.15;0.93;;;10.70;1.00;;;;;;5141282;27;20029;-59
2023/03/27 09:34:31;;;;;;;;;;;9.10;1.00;;;;;;5141476;27;20023;-60
2023/03/27 09:37:01;;;;;;;7.10;0.70;;;8.20;1.00;;;;;;5141951;27;19912;-61
2023/03/27 09:39:33;;;;;;;3.10;0.77;;;7.20;1.00;;;;;;5141074;27;20027;-58
2023/03/27 09:42:34;;;;;;;4.15;1.05;;;6.60;31.40;;;;;;5140798;27;20051;-59
2023/03/27 09:45:08;;;;;;;5.38;0.95;;;6.20;43.30;;;;;;5141179;27;20034;-60
2023/03/27 09:48:00;;;;;;;3.28;0.82;;;6.00;58.60;;;;;;5140891;27;20027;-60
2023/03/27 09:50:45;;;;;;;5.55;0.95;;;6.10;61.30;;;;;;5140730;27;20114;-60
2023/03/27 09:53:26;;;;;;;6.03;1.00;;;6.30;67.90;;;;;;5140675;27;20130;-59
2023/03/27 09:56:15;;;;;;;4.80;0.85;;;6.30;74.00;;;;;;5140641;27;20027;-59
2023/03/27 09:58:53;;;;;;;4.22;0.80;;;6.50;73.70;;;;;;5125106;27;20035;-58
2023/03/27 10:01:33;;;;;;;6.63;1.00;;;6.80;60.50;;;;;;5140560;27;20077;-59
2023/03/27 10:04:16;;;;;;;4.97;1.00;;;7.20;73.30;;;;;;5124568;27;20428;-59
2023/03/27 10:07:00;;;;;;;6.95;1.63;;;7.30;46.60;;;;;;5140544;27;20019;-59
2023/03/27 10:10:18;;;;;;;5.95;1.17;;;7.50;37.90;;;;;;5126639;27;20136;-58
2023/03/27 10:13:09;;;;;;;7.07;1.55;;;7.60;14.60;;;;;;5119696;27;20421;-59
2023/03/27 10:15:41;;;;;;;2.97;0.60;;;7.60;18.50;;;;;;5124034;27;20027;-59
2023/03/27 10:18:26;;;;;;;2.80;0.50;;;7.80;1.00;;;;;;5123797;27;20068;-60
2023/03/27 10:21:08;;;;;;;2.03;0.93;;;7.80;1.00;;;;;;5124495;27;20059;-60
2023/03/27 10:23:43;;;;;;;3.85;1.00;;;8.00;1.00;;;;;;5140242;27;20447;-60
2023/03/27 10:26:24;;;;;;;4.88;0.75;;;8.40;1.00;;;;;;5123894;27;20027;-59
2023/03/27 10:28:51;;;;;;;4.35;0.80;;;8.70;1.00;;;;;;5140109;27;20031;-61
2023/03/27 10:31:29;;;;;;;2.65;0.90;;;8.80;1.00;;;;;;5139867;27;20031;-60
2023/03/27 10:34:35;;;;;;;4.38;0.82;;;9.00;1.00;;;;;;5140095;27;20399;-60
2023/03/27 10:37:33;;;;;;;3.80;1.00;;;9.50;1.00;;;;;;5140848;27;20126;-60
2023/03/27 10:40:30;;;;;;;5.78;1.00;;;10.10;1.00;;;;;;5129357;27;20047;-59
2023/03/27 10:43:09;;;;;;;2.65;0.90;;;10.00;1.00;;;;;;5139820;27;20042;-60
2023/03/27 10:45:48;;;;;;;1.27;0.50;;;10.00;1.00;;;;;;5139810;27;20034;-62
2023/03/27 10:48:37;;;;;;;2.55;0.60;;;11.10;1.00;;;;;;5139694;27;20023;-62
2023/03/27 10:51:36;;;;;;;3.20;0.60;;;12.30;99.90;;;;;;5139723;27;20037;-62
2023/03/27 10:54:44;;;;;;;3.55;0.50;;;13.90;1.00;;;;;;5118582;27;20047;-60
2023/03/27 10:57:27;;;;;;;5.15;0.80;;;14.50;99.90;;;;;;5139456;27;20027;-61
2023/03/27 11:00:19;;;;;;;6.70;0.73;;;15.30;99.90;;;;;;5140573;27;20114;-59
2023/03/27 11:03:05;;;;;;;4.15;0.70;;;15.50;99.90;;;;;;5139466;27;20042;-61
2023/03/27 11:05:43;;;;;;;6.75;0.82;;;15.40;1.00;;;;;;5139329;27;20057;-60
2023/03/27 11:08:30;;;;;;;2.65;0.50;;;15.00;1.00;;;;;;5139217;27;20024;-60
2023/03/27 11:11:06;;;;;;;6.03;0.77;;;15.90;1.00;;;;;;5139338;27;20027;-61
2023/03/27 11:13:40;;;;;;;4.75;0.93;;;16.10;1.00;;;;;;5139365;27;20099;-61
2023/03/27 11:16:22;;;;;;;3.15;0.60;;;15.30;99.90;;;;;;5139317;27;20420;-62
2023/03/27 11:19:28;;;;;;;2.25;0.77;;;14.10;1.00;;;;;;5139866;27;20054;-61
2023/03/27 11:22:25;;;;;;;3.88;0.80;;;14.40;1.00;;;;;;5140636;27;20050;-62
2023/03/27 11:25:06;;;;;;;5.57;1.10;;;15.50;1.00;;;;;;5138965;27;20034;-61
2023/03/27 11:27:42;;;;;;;9.05;0.85;;;16.70;99.90;;;;;;5138943;27;20030;-62
2023/03/27 11:30:31;;;;;;;6.45;1.05;;;16.50;1.00;;;;;;5139067;27;20407;-64
2023/03/27 11:33:04;;;;;;;2.30;0.73;;;15.10;1.00;;;;;;5138788;27;20023;-61
2023/03/27 11:35:40;;;;;;;2.28;0.70;;;14.20;1.00;;;;;;5122182;27;20036;-60
2023/03/27 11:38:35;;;;;;;3.92;0.88;;;13.80;99.90;;;;;;5128182;27;20092;-60
2023/03/27 11:41:02;;;;;;;4.00;0.88;;;14.10;99.90;;;;;;5138477;27;20499;-62
2023/03/27 11:43:28;;;;;;;3.47;0.70;;;14.80;99.90;;;;;;5103757;27;20336;-61
2023/03/27 11:46:17;;;;;;;4.85;0.88;;;14.70;99.90;;;;;;5138426;27;20035;-61
2023/03/27 11:49:22;;;;;;;4.60;1.00;;;14.20;99.90;;;;;;5121427;27;20031;-64
2023/03/27 11:52:08;;;;;;;3.00;0.77;;;14.70;99.90;;;;;;5072164;27;20035;-61
2023/03/27 11:54:52;;;;;;;2.92;0.65;;;14.90;99.90;;;;;;5139081;27;20027;-61
2023/03/27 11:57:25;;;;;;;3.92;1.05;;;14.40;1.00;;;;;;5121779;27;20027;-61
2023/03/27 12:00:28;;;;;;;5.97;0.90;;;14.70;1.00;;;;;;5139549;27;20035;-62
2023/03/27 12:03:19;;;;;;;4.40;0.90;;;15.30;1.00;;;;;;5138254;27;20114;-61
2023/03/27 12:06:04;;;;;;;5.18;1.02;;;15.70;99.90;;;;;;5138194;27;20019;-61
2023/03/27 12:08:43;;;;;;;4.53;1.05;;;15.50;1.00;;;;;;5138155;27;20050;-61
2023/03/27 12:11:13;;;;;;;8.50;1.48;;;15.70;1.00;;;;;;5138007;27;20024;-61
2023/03/27 12:14:04;;;;;;;3.13;1.00;;;16.90;1.00;;;;;;5138176;27;20027;-61
2023/03/27 12:16:40;;;;;;;2.97;0.77;;;17.30;99.90;;;;;;5137921;27;20027;-61
2023/03/27 12:19:26;;;;;;;6.70;1.23;;;16.60;99.90;;;;;;5120757;27;20045;-59
2023/03/27 12:22:28;;;;;;;2.65;0.50;;;15.90;99.90;;;;;;5122249;27;20023;-60
2023/03/27 12:25:16;;;;;;;3.45;0.75;;;15.60;1.00;;;;;;5137918;27;20030;-61
2023/03/27 12:28:27;;;;;;;;;;;14.90;1.00;;;;;;5138886;27;20042;-62
2023/03/27 12:31:06;;;;;;;5.30;0.70;;;14.10;1.00;;;;;;5137783;27;20014;-61
2023/03/27 12:33:50;;;;;;;4.00;0.90;;;13.30;1.00;;;;;;5137550;27;20027;-62
2023/03/27 12:36:21;;;;;;;4.82;0.90;;;12.90;1.00;;;;;;5120411;27;20118;-61
2023/03/27 12:38:49;;;;;;;3.63;0.60;;;13.40;1.00;;;;;;5137340;27;20027;-61
2023/03/27 12:41:22;;;;;;;5.50;1.00;;;14.20;1.00;;;;;;5120162;27;20058;-60
2023/03/27 12:44:05;;;;;;;5.60;0.70;;;15.40;5.90;;;;;;5137459;27;20358;-61
2023/03/27 12:47:04;;;;;;;2.95;0.80;;;15.20;1.00;;;;;;5137372;27;20043;-60
2023/03/27 12:49:40;;;;;;;4.00;0.85;;;14.00;1.00;;;;;;5120256;27;20042;-59
2023/03/27 12:52:06;;;;;;;3.70;0.80;;;13.80;99.90;;;;;;5137559;27;20429;-60
2023/03/27 12:55:30;;;;;;;5.15;0.75;;;14.40;1.00;;;;;;5137771;27;20075;-61
2023/03/27 12:57:57;;;;;;;4.68;0.60;;;15.80;1.00;;;;;;5075590;28;20040;-61
2023/03/27 13:00:58;;;;;;;1.83;0.47;;;16.30;99.90;;;;;;5035484;28;20132;-61
2023/03/27 13:04:19;;;;;;;2.72;0.68;;;16.60;99.90;;;;;;5125552;27;20379;-60
2023/03/27 13:07:10;;;;;;;2.92;0.60;;;15.80;98.30;;;;;;5137138;27;20038;-61
2023/03/27 13:10:02;;;;;;;2.85;0.70;;;16.20;99.90;;;;;;5106321;27;20031;-60
2023/03/27 13:12:52;;;;;;;3.33;0.70;;;17.50;99.90;;;;;;5136923;27;20396;-61
2023/03/27 13:15:29;;;;;;;3.00;0.70;;;17.50;39.60;;;;;;5136857;27;20027;-61
2023/03/27 13:18:19;;;;;;;4.50;0.60;;;17.60;1.00;;;;;;5137011;28;20031;-62
2023/03/27 13:21:11;;;;;;;2.47;0.65;;;18.20;1.00;;;;;;5137646;28;20035;-63
2023/03/27 13:24:06;;;;;;;3.00;0.70;;;19.00;1.00;;;;;;5119977;28;20172;-61
2023/03/27 13:27:12;;;;;;;1.67;0.50;;;19.80;1.00;;;;;;5119817;28;20024;-63
2023/03/27 13:29:40;;;;;;;3.92;0.50;;;18.60;1.00;;;;;;5106254;28;20043;-62
2023/03/27 13:32:31;;;;;;;5.03;0.75;;;18.80;1.00;;;;;;5121354;28;20038;-62
2023/03/27 13:35:18;;;;;;;3.88;0.95;;;19.30;1.00;;;;;;5136896;28;20034;-61
2023/03/27 13:37:56;;;;;;;2.20;0.63;;;19.80;1.00;;;;;;5136873;28;20031;-63
2023/03/27 13:40:39;;;;;;;3.85;0.70;;;20.80;1.00;;;;;;5136622;28;20116;-59
2023/03/27 13:43:09;;;;;;;7.22;0.82;;;20.00;1.00;;;;;;5120215;28;20051;-60
2023/03/27 13:45:48;;;;;;;3.42;0.65;;;18.40;1.00;;;;;;5136726;28;20311;-62
2023/03/27 13:48:52;;;;;;;4.75;0.60;;;16.80;1.00;;;;;;5137969;27;20035;-61
2023/03/27 13:51:53;;;;;;;3.03;0.60;;;15.40;1.00;;;;;;5136720;28;20023;-61